createdAt,value
2022-12-15T00:00:18.499Z,64.2
2022-12-15T00:05:18.482Z,64.1
2022-12-15T00:10:18.471Z,64.3
2022-12-15T00:15:18.506Z,64.9
2022-12-15T00:20:18.500Z,64.6
2022-12-15T00:25:18.479Z,64.5
2022-12-15T00:30:18.466Z,64.6
2022-12-15T00:35:18.499Z,64.5
2022-12-15T00:40:18.582Z,64.7
2022-12-15T00:45:18.610Z,65.1
2022-12-15T00:50:18.602Z,65.5
2022-12-15T00:55:18.689Z,66.7
2022-12-15T01:00:18.801Z,66
2022-12-15T01:05:18.801Z,65.8
2022-12-15T01:10:18.856Z,67.1
2022-12-15T01:15:18.923Z,67.8
2022-12-15T01:20:18.933Z,68.3
2022-12-15T01:25:19.106Z,69.1
2022-12-15T01:30:19.071Z,69.7
2022-12-15T01:35:19.398Z,70.3
2022-12-15T01:40:19.456Z,71.3
2022-12-15T01:45:19.203Z,71.7
2022-12-15T01:50:19.357Z,69.2
2022-12-15T01:55:19.425Z,67.6
2022-12-15T02:00:19.365Z,66.3
2022-12-15T02:05:19.528Z,64.4
2022-12-15T02:10:19.473Z,63.3
2022-12-15T02:15:19.433Z,63.6
2022-12-15T02:20:19.450Z,64.2
2022-12-15T02:25:19.336Z,63.9
2022-12-15T02:30:19.392Z,64.3
2022-12-15T02:35:19.722Z,64.3
2022-12-15T02:40:19.853Z,63.6
2022-12-15T02:45:19.697Z,63.2
2022-12-15T02:50:19.681Z,63.2
2022-12-15T02:55:19.598Z,63
2022-12-15T03:00:19.614Z,64
2022-12-15T03:05:19.589Z,64.9
2022-12-15T03:10:19.590Z,64.1
2022-12-15T03:15:19.602Z,63.6
2022-12-15T03:20:19.613Z,64.1
2022-12-15T03:25:19.582Z,66.3
2022-12-15T03:30:19.609Z,68.8
2022-12-15T03:35:19.788Z,69.8
2022-12-15T03:40:19.857Z,71.7
2022-12-15T03:45:19.797Z,72.8
2022-12-15T03:50:19.795Z,74.7
2022-12-15T03:55:20.069Z,77.3
2022-12-15T04:00:19.977Z,79.5
2022-12-15T04:05:19.891Z,80.9
2022-12-15T04:10:19.900Z,82.8
2022-12-15T04:15:19.947Z,84.7
2022-12-15T04:20:20.069Z,86.7
2022-12-15T04:25:20.117Z,87.7
2022-12-15T04:30:20.112Z,88.3
2022-12-15T04:35:20.191Z,90
2022-12-15T04:40:20.289Z,90.5
2022-12-15T04:45:20.951Z,90.8
2022-12-15T04:50:20.293Z,90.2
2022-12-15T04:55:20.295Z,90.7
2022-12-15T05:00:20.323Z,90.4
2022-12-15T05:05:20.473Z,90.1
2022-12-15T05:10:20.461Z,89.2
2022-12-15T05:15:20.542Z,89
2022-12-15T05:20:20.567Z,88.2
2022-12-15T05:25:20.657Z,89.2
2022-12-15T05:30:20.540Z,90.2
2022-12-15T05:35:20.718Z,90.3
2022-12-15T05:40:20.962Z,91.1
2022-12-15T05:45:20.813Z,91.7
2022-12-15T05:50:20.660Z,92
2022-12-15T05:55:20.921Z,92
2022-12-15T06:00:20.901Z,92.7
2022-12-15T06:05:20.961Z,92.2
2022-12-15T06:10:20.958Z,92.6
2022-12-15T06:15:20.912Z,92.2
2022-12-15T06:20:21.028Z,91.5
2022-12-15T06:25:20.992Z,91.2
2022-12-15T06:30:20.849Z,91.4
2022-12-15T06:35:20.868Z,91.7
2022-12-15T06:40:21.060Z,91.8
2022-12-15T06:45:20.993Z,92
2022-12-15T06:50:20.982Z,91.9
2022-12-15T06:55:20.995Z,91.6
2022-12-15T07:00:21.040Z,91.2
2022-12-15T07:05:21.014Z,91
2022-12-15T07:10:20.982Z,91.2
2022-12-15T07:15:21.061Z,91.1
2022-12-15T07:20:25.516Z,91
2022-12-15T07:25:21.058Z,90.7
2022-12-15T07:30:21.003Z,90.1
2022-12-15T07:35:21.007Z,90.1
2022-12-15T07:40:21.224Z,88.5
2022-12-15T07:45:21.105Z,88.9
2022-12-15T07:50:20.979Z,89.7
2022-12-15T07:55:32.451Z,89.4
2022-12-15T08:00:21.011Z,88.7
2022-12-15T08:05:20.980Z,89.7
2022-12-15T08:10:21.047Z,90.2
2022-12-15T08:15:21.085Z,89.6
2022-12-15T08:20:21.095Z,89.1
2022-12-15T08:25:21.070Z,89.8
2022-12-15T08:30:21.059Z,90.1
2022-12-15T08:35:47.279Z,89.6
2022-12-15T08:40:21.170Z,89.2
2022-12-15T08:45:21.123Z,89.9
2022-12-15T08:50:21.124Z,89.9
2022-12-15T08:55:22.568Z,91.3
2022-12-15T09:00:21.262Z,91.1
2022-12-15T09:05:21.361Z,91
2022-12-15T09:10:21.362Z,90.5
2022-12-15T09:15:29.817Z,88.5
2022-12-15T09:20:21.620Z,88.8
2022-12-15T09:25:21.624Z,86.3
2022-12-15T09:30:21.557Z,84.1
2022-12-15T09:35:21.760Z,83.9
2022-12-15T09:40:21.503Z,83.8
2022-12-15T09:45:21.708Z,82.7
2022-12-15T09:50:21.790Z,81.7
2022-12-15T09:55:22.056Z,82.8
2022-12-15T10:00:22.061Z,82.2
2022-12-15T10:05:21.789Z,81.9
2022-12-15T10:10:22.101Z,81.6
2022-12-15T10:15:22.055Z,79.2
2022-12-15T10:20:22.046Z,79
2022-12-15T10:25:27.763Z,77.4
2022-12-15T10:30:22.186Z,77.8
2022-12-15T10:35:22.302Z,78.3
2022-12-15T10:40:22.259Z,79.2
2022-12-15T10:45:22.436Z,79.2
2022-12-15T10:50:24.686Z,79.7
2022-12-15T10:55:22.205Z,78.9
2022-12-15T11:00:22.414Z,79.3
2022-12-15T11:05:22.363Z,79.8
2022-12-15T11:10:22.481Z,79
2022-12-15T11:15:22.365Z,77.6
2022-12-15T11:20:22.302Z,76.8
2022-12-15T11:25:22.278Z,76.9
2022-12-15T11:30:22.285Z,77.6
2022-12-15T11:35:22.284Z,77.1
2022-12-15T11:40:22.515Z,77.4
2022-12-15T11:45:22.495Z,77.5
2022-12-15T11:50:22.486Z,78.6
2022-12-15T11:55:27.754Z,77.9
2022-12-15T12:00:22.509Z,78
2022-12-15T12:05:22.504Z,78
2022-12-15T12:10:22.551Z,77.7
2022-12-15T12:15:22.531Z,77.9
2022-12-15T12:20:22.530Z,78.2
2022-12-15T12:25:22.637Z,78.3
2022-12-15T12:30:22.617Z,78.4
2022-12-15T12:35:30.153Z,79.2
2022-12-15T12:40:22.807Z,79.1
2022-12-15T12:45:22.829Z,77.9
2022-12-15T12:50:22.690Z,79.2
2022-12-15T12:55:22.914Z,77.8
2022-12-15T13:00:23.027Z,77
2022-12-15T13:05:22.990Z,76.7
2022-12-15T13:10:23.032Z,75.9
2022-12-15T13:15:23.068Z,75.4
2022-12-15T13:20:23.271Z,73.7
2022-12-15T13:25:22.958Z,73.1
2022-12-15T13:30:23.072Z,72.8
2022-12-15T13:35:22.994Z,72.3
2022-12-15T13:40:23.061Z,72.3
2022-12-15T13:45:23.031Z,72.9
2022-12-15T13:50:22.998Z,72.7
2022-12-15T13:55:27.752Z,72.5
2022-12-15T14:00:23.028Z,72.8
2022-12-15T14:05:23.123Z,72.9
2022-12-15T14:10:23.123Z,72.9
2022-12-15T14:15:23.268Z,72.8
2022-12-15T14:20:23.283Z,73.2
2022-12-15T14:25:23.268Z,73.2
2022-12-15T14:30:23.238Z,73.2
2022-12-15T14:35:23.304Z,73.4
2022-12-15T14:40:28.353Z,73.2
2022-12-15T14:45:23.309Z,73.1
2022-12-15T14:50:25.158Z,73.3
2022-12-15T14:55:23.296Z,73.7
2022-12-15T15:00:23.333Z,73.7
2022-12-15T15:05:23.380Z,73.9
2022-12-15T15:10:23.294Z,74.1
2022-12-15T15:15:23.168Z,74.2
2022-12-15T15:20:23.192Z,74.3
2022-12-15T15:25:23.205Z,74.5
2022-12-15T15:30:23.165Z,74.7
2022-12-15T15:35:23.310Z,75
2022-12-15T15:40:23.202Z,75.4
2022-12-15T15:45:23.210Z,75.5
2022-12-15T15:50:23.238Z,75.7
2022-12-15T15:55:23.154Z,75.9
2022-12-15T16:00:23.190Z,76.2
2022-12-15T16:05:23.156Z,76.4
2022-12-15T16:10:23.161Z,76.4
2022-12-15T16:15:23.147Z,76.5
2022-12-15T16:20:23.212Z,76.5
2022-12-15T16:25:23.146Z,76.5
2022-12-15T16:30:23.154Z,76.8
2022-12-15T16:35:23.156Z,76.8
2022-12-15T16:40:23.178Z,77.1
2022-12-15T16:45:23.136Z,77.4
2022-12-15T16:50:23.304Z,77.7
2022-12-15T16:55:23.152Z,78
2022-12-15T17:00:23.235Z,78.3
2022-12-15T17:05:23.342Z,78.7
2022-12-15T17:10:23.310Z,79
2022-12-15T17:15:23.309Z,79.7
2022-12-15T17:20:31.022Z,80.2
2022-12-15T17:25:37.757Z,80.5
2022-12-15T17:30:23.272Z,80.6
2022-12-15T17:35:23.299Z,80.6
2022-12-15T17:40:23.271Z,80.2
2022-12-15T17:45:23.456Z,80
2022-12-15T17:50:23.388Z,79.8
2022-12-15T17:55:23.423Z,79.9
2022-12-15T18:00:23.284Z,79.9
2022-12-15T18:05:23.240Z,80.6
2022-12-15T18:10:23.244Z,80.9
2022-12-15T18:15:23.250Z,81.2
2022-12-15T18:20:23.290Z,81
2022-12-15T18:25:23.234Z,81.8
2022-12-15T18:30:23.238Z,81.5
2022-12-15T18:35:23.230Z,82.1
2022-12-15T18:40:23.309Z,82.2
2022-12-15T18:45:23.214Z,82.7
2022-12-15T18:50:23.265Z,83.1
2022-12-15T18:55:23.211Z,83
2022-12-15T19:00:23.248Z,83.3
2022-12-15T19:05:23.222Z,82.6
2022-12-15T19:10:23.245Z,82
2022-12-15T19:15:23.228Z,83.1
2022-12-15T19:20:23.293Z,83.4
2022-12-15T19:25:25.678Z,83.6
2022-12-15T19:30:23.223Z,83.8
2022-12-15T19:35:23.220Z,84.3
2022-12-15T19:40:23.240Z,84.3
2022-12-15T19:45:23.317Z,84.3
2022-12-15T19:50:23.216Z,84.2
2022-12-15T19:55:23.220Z,84.3
2022-12-15T20:00:23.239Z,84.1
2022-12-15T20:05:23.211Z,84.1
2022-12-15T20:10:27.818Z,84
2022-12-15T20:15:23.210Z,83.2
2022-12-15T20:20:23.274Z,83.8
2022-12-15T20:25:23.226Z,84.1
2022-12-15T20:30:23.210Z,84.4
2022-12-15T20:35:23.232Z,84.4
2022-12-15T20:40:23.236Z,83.6
2022-12-15T20:45:23.224Z,84.3
2022-12-15T20:50:23.221Z,84.6
2022-12-15T20:55:23.210Z,84.8
2022-12-15T21:00:23.240Z,85
2022-12-15T21:05:23.208Z,85.1
2022-12-15T21:10:23.193Z,85.2
2022-12-15T21:15:23.179Z,85.5
2022-12-15T21:20:23.198Z,85.4
2022-12-15T21:25:23.251Z,85.1
2022-12-15T21:30:23.188Z,85.1
2022-12-15T21:35:25.118Z,85
2022-12-15T21:40:23.197Z,84.9
2022-12-15T21:45:23.170Z,85
2022-12-15T21:50:23.168Z,85
2022-12-15T21:55:23.176Z,84.4
2022-12-15T22:00:23.206Z,84.4
2022-12-15T22:05:23.192Z,84.4
2022-12-15T22:10:23.195Z,84.1
2022-12-15T22:15:23.180Z,84.1
2022-12-15T22:20:23.215Z,83.6
2022-12-15T22:25:23.194Z,83.1
2022-12-15T22:30:23.174Z,82.4
2022-12-15T22:35:23.177Z,81.8
2022-12-15T22:40:23.324Z,81.7
2022-12-15T22:45:23.191Z,81.3
2022-12-15T22:50:23.197Z,81.4
2022-12-15T22:55:23.178Z,81
2022-12-15T23:00:23.205Z,80.5
2022-12-15T23:05:23.187Z,80.4
2022-12-15T23:10:23.173Z,80.4
2022-12-15T23:15:23.173Z,80
2022-12-15T23:20:23.197Z,80.2
2022-12-15T23:25:23.166Z,79.4
2022-12-15T23:30:23.185Z,79.4
2022-12-15T23:35:23.169Z,79.4
2022-12-15T23:40:23.271Z,79.4
2022-12-15T23:45:23.269Z,78.3
2022-12-15T23:50:23.159Z,76.7
2022-12-15T23:55:23.164Z,77.8
